createdAt,value
2022-08-05T00:02:11.590Z,20.60
2022-08-05T00:04:40.274Z,20.61
2022-08-05T00:07:21.755Z,20.60
2022-08-05T00:09:55.414Z,20.66
2022-08-05T00:12:24.634Z,20.66
2022-08-05T00:14:52.136Z,20.67
2022-08-05T00:17:20.371Z,20.68
2022-08-05T00:19:57.440Z,20.66
2022-08-05T00:22:30.975Z,20.66
2022-08-05T00:24:58.470Z,20.58
2022-08-05T00:27:36.222Z,20.57
2022-08-05T00:30:04.558Z,20.55
2022-08-05T00:32:32.162Z,20.56
2022-08-05T00:35:07.582Z,20.55
2022-08-05T00:37:53.349Z,20.54
2022-08-05T00:40:28.142Z,20.54
2022-08-05T00:42:58.908Z,20.56
2022-08-05T00:45:38.254Z,20.53
2022-08-05T00:48:07.482Z,20.51
2022-08-05T00:50:35.059Z,20.50
2022-08-05T00:53:03.242Z,20.49
2022-08-05T00:55:42.886Z,20.47
2022-08-05T00:58:13.216Z,20.46
2022-08-05T01:00:42.170Z,20.44
2022-08-05T01:03:10.418Z,20.08
2022-08-05T01:05:49.939Z,20.39
2022-08-05T01:08:41.106Z,20.41
2022-08-05T01:11:10.517Z,20.42
2022-08-05T01:13:57.324Z,20.43
2022-08-05T01:16:30.280Z,20.45
2022-08-05T01:19:00.825Z,20.42
2022-08-05T01:21:43.040Z,20.41
2022-08-05T01:24:27.128Z,20.44
2022-08-05T01:27:17.903Z,20.39
2022-08-05T01:29:49.845Z,20.41
2022-08-05T01:32:21.901Z,20.31
2022-08-05T01:34:50.722Z,20.31
2022-08-05T01:37:24.871Z,20.38
2022-08-05T01:39:54.829Z,20.37
2022-08-05T01:42:27.816Z,20.28
2022-08-05T01:44:57.108Z,20.28
2022-08-05T01:47:39.038Z,20.28
2022-08-05T01:50:09.196Z,20.33
2022-08-05T01:52:44.094Z,20.33
2022-08-05T01:55:13.871Z,20.36
2022-08-05T01:58:09.265Z,20.35
2022-08-05T02:00:32.449Z,20.34
2022-08-05T02:03:03.685Z,20.34
2022-08-05T02:05:34.104Z,20.34
2022-08-05T02:08:02.146Z,20.35
2022-08-05T02:10:35.736Z,20.34
2022-08-05T02:13:15.720Z,20.39
2022-08-05T02:15:47.664Z,20.33
2022-08-05T02:18:31.094Z,20.33
2022-08-05T02:21:03.138Z,20.30
2022-08-05T02:23:33.913Z,20.31
2022-08-05T02:26:05.368Z,20.30
2022-08-05T02:28:38.409Z,20.28
2022-08-05T02:31:14.278Z,20.24
2022-08-05T02:33:45.078Z,20.26
2022-08-05T02:36:17.884Z,20.19
2022-08-05T02:38:52.807Z,20.21
2022-08-05T02:41:23.009Z,20.25
2022-08-05T02:44:02.347Z,20.20
2022-08-05T02:46:35.570Z,19.84
2022-08-05T02:49:12.011Z,20.11
2022-08-05T02:52:01.231Z,20.07
2022-08-05T02:54:34.857Z,20.05
2022-08-05T02:57:10.230Z,20.07
2022-08-05T02:59:54.125Z,20.04
2022-08-05T03:02:25.363Z,20.02
2022-08-05T03:04:56.060Z,20.02
2022-08-05T03:07:40.422Z,19.97
2022-08-05T03:10:13.286Z,19.99
2022-08-05T03:12:41.274Z,19.96
2022-08-05T03:15:12.444Z,19.93
2022-08-05T03:17:44.764Z,19.91
2022-08-05T03:20:13.480Z,19.79
2022-08-05T03:22:44.059Z,19.81
2022-08-05T03:25:33.939Z,19.77
2022-08-05T03:28:02.506Z,19.78
2022-08-05T03:30:34.087Z,19.70
2022-08-05T03:33:05.690Z,19.71
2022-08-05T03:35:40.754Z,19.69
2022-08-05T03:38:09.406Z,19.68
2022-08-05T03:40:40.585Z,19.65
2022-08-05T03:43:58.868Z,19.60
2022-08-05T03:45:57.842Z,19.55
2022-08-05T03:48:29.145Z,19.54
2022-08-05T03:52:35.473Z,19.55
2022-08-05T03:56:03.934Z,19.50
2022-08-05T03:56:41.462Z,19.46
2022-08-05T03:59:10.669Z,19.46
2022-08-05T04:01:40.966Z,19.35
2022-08-05T04:04:11.351Z,19.31
2022-08-05T04:06:47.791Z,19.32
2022-08-05T04:09:25.853Z,19.31
2022-08-05T04:11:53.908Z,19.24
2022-08-05T04:14:30.179Z,19.21
2022-08-05T04:16:59.281Z,19.18
2022-08-05T04:19:28.365Z,19.19
2022-08-05T04:22:08.964Z,19.20
2022-08-05T04:24:44.354Z,19.17
2022-08-05T04:27:19.772Z,19.13
2022-08-05T04:30:07.700Z,19.08
2022-08-05T04:32:36.494Z,19.04
2022-08-05T04:35:07.159Z,19.07
2022-08-05T04:38:02.604Z,19.05
2022-08-05T04:40:34.165Z,19.03
2022-08-05T04:43:01.601Z,18.99
2022-08-05T04:45:47.884Z,18.94
2022-08-05T04:48:27.084Z,18.59
2022-08-05T04:51:01.671Z,18.91
2022-08-05T04:53:38.599Z,18.82
2022-08-05T04:56:33.554Z,18.79
2022-08-05T04:58:54.499Z,18.75
2022-08-05T05:02:06.425Z,18.70
2022-08-05T05:04:09.525Z,18.65
2022-08-05T05:06:49.154Z,18.65
2022-08-05T05:09:19.483Z,18.62
2022-08-05T05:11:55.473Z,18.58
2022-08-05T05:14:28.036Z,18.49
2022-08-05T05:16:59.649Z,18.50
2022-08-05T05:19:36.451Z,18.53
2022-08-05T05:22:23.135Z,18.53
2022-08-05T05:24:58.433Z,18.52
2022-08-05T05:27:44.331Z,18.55
2022-08-05T05:30:28.641Z,18.53
2022-08-05T05:33:00.598Z,18.54
2022-08-05T05:35:37.643Z,18.53
2022-08-05T05:38:09.409Z,18.56
2022-08-05T05:40:47.945Z,18.56
2022-08-05T05:43:27.712Z,18.61
2022-08-05T05:46:06.863Z,18.60
2022-08-05T05:48:42.119Z,18.60
2022-08-05T05:51:15.527Z,18.62
2022-08-05T05:53:54.355Z,18.64
2022-08-05T05:56:32.708Z,18.68
2022-08-05T05:59:03.210Z,18.72
2022-08-05T06:01:37.463Z,18.80
2022-08-05T06:04:06.079Z,18.79
2022-08-05T06:06:34.869Z,18.81
2022-08-05T06:09:04.286Z,18.85
2022-08-05T06:11:31.798Z,18.97
2022-08-05T06:14:00.494Z,18.97
2022-08-05T06:16:33.073Z,18.99
2022-08-05T06:19:05.718Z,19.02
2022-08-05T06:21:37.658Z,19.07
2022-08-05T06:24:11.571Z,19.15
2022-08-05T06:26:40.106Z,19.21
2022-08-05T06:29:43.086Z,19.28
2022-08-05T06:32:25.428Z,19.37
2022-08-05T06:34:56.117Z,19.50
2022-08-05T06:37:57.877Z,19.70
2022-08-05T06:40:13.878Z,19.82
2022-08-05T06:42:45.441Z,20.01
2022-08-05T06:45:20.672Z,20.17
2022-08-05T06:48:44.092Z,20.22
2022-08-05T06:50:36.359Z,20.48
2022-08-05T06:53:11.398Z,20.68
2022-08-05T06:55:51.614Z,20.61
2022-08-05T06:58:29.873Z,20.80
2022-08-05T07:01:03.232Z,21.05
2022-08-05T07:03:32.837Z,21.27
2022-08-05T07:06:05.435Z,21.38
2022-08-05T07:08:33.818Z,21.38
2022-08-05T07:11:02.813Z,21.57
2022-08-05T07:13:57.711Z,21.63
2022-08-05T07:18:01.085Z,21.42
2022-08-05T07:20:16.850Z,21.76
2022-08-05T07:22:22.038Z,21.84
2022-08-05T07:24:56.768Z,22.04
2022-08-05T07:27:27.279Z,22.00
2022-08-05T07:30:24.670Z,21.98
2022-08-05T07:32:54.424Z,22.27
2022-08-05T07:36:01.876Z,22.41
2022-08-05T07:38:12.457Z,22.63
2022-08-05T07:41:00.329Z,22.85
2022-08-05T07:43:31.726Z,22.93
2022-08-05T07:46:02.546Z,23.17
2022-08-05T07:49:00.552Z,23.34
2022-08-05T07:51:23.300Z,23.20
2022-08-05T07:54:04.099Z,23.20
2022-08-05T07:57:02.821Z,23.18
2022-08-05T07:59:23.291Z,23.24
2022-08-05T08:02:07.197Z,23.37
2022-08-05T08:04:42.988Z,23.58
2022-08-05T08:07:12.683Z,23.87
2022-08-05T08:09:40.232Z,24.30
2022-08-05T08:12:36.931Z,24.31
2022-08-05T08:14:57.089Z,24.38
2022-08-05T08:17:30.192Z,24.71
2022-08-05T08:20:43.664Z,25.03
2022-08-05T08:22:51.163Z,25.06
2022-08-05T08:27:54.758Z,24.98
2022-08-05T08:30:32.770Z,24.99
2022-08-05T08:33:08.554Z,25.01
2022-08-05T08:35:52.729Z,24.94
2022-08-05T08:38:32.302Z,24.92
2022-08-05T08:41:05.636Z,24.85
2022-08-05T08:45:17.760Z,24.98
2022-08-05T08:46:23.953Z,25.33
2022-08-05T08:49:06.256Z,25.61
2022-08-05T08:52:05.805Z,25.92
2022-08-05T08:54:31.532Z,26.15
2022-08-05T08:56:59.977Z,26.34
2022-08-05T08:59:33.521Z,26.41
2022-08-05T09:02:06.197Z,26.90
2022-08-05T09:04:58.224Z,26.98
2022-08-05T09:07:28.392Z,26.85
2022-08-05T09:09:57.066Z,26.84
2022-08-05T09:12:27.740Z,26.48
2022-08-05T09:15:03.934Z,26.44
2022-08-05T09:17:40.622Z,26.17
2022-08-05T09:20:10.655Z,25.86
2022-08-05T09:23:05.360Z,25.55
2022-08-05T09:26:02.418Z,25.17
2022-08-05T09:28:24.469Z,25.08
2022-08-05T09:31:22.661Z,24.88
2022-08-05T09:33:54.769Z,24.82
2022-08-05T09:36:27.888Z,24.45
2022-08-05T09:39:02.378Z,23.46
2022-08-05T09:41:33.245Z,23.79
2022-08-05T09:44:06.760Z,23.45
2022-08-05T09:46:35.205Z,23.66
2022-08-05T09:49:18.985Z,23.93
2022-08-05T09:51:49.380Z,23.07
2022-08-05T09:54:21.174Z,23.64
2022-08-05T09:56:57.424Z,23.24
2022-08-05T09:59:27.592Z,23.44
2022-08-05T10:01:58.295Z,23.54
2022-08-05T10:04:35.373Z,23.78
2022-08-05T10:07:06.126Z,23.93
2022-08-05T10:10:14.662Z,23.88
2022-08-05T10:12:49.451Z,24.05
2022-08-05T10:15:20.060Z,23.80
2022-08-05T10:18:04.307Z,22.70
2022-08-05T10:20:35.301Z,23.26
2022-08-05T10:23:03.322Z,23.13
2022-08-05T10:25:30.975Z,23.54
2022-08-05T10:28:13.360Z,23.68
2022-08-05T10:32:51.958Z,23.00
2022-08-05T10:33:34.258Z,23.13
2022-08-05T10:36:04.985Z,23.14
2022-08-05T10:38:33.406Z,23.35
2022-08-05T10:41:03.636Z,22.66
2022-08-05T10:43:36.478Z,23.37
2022-08-05T10:46:06.600Z,24.15
2022-08-05T10:48:38.456Z,24.00
2022-08-05T10:51:28.732Z,24.58
2022-08-05T10:53:58.482Z,24.98
2022-08-05T10:56:30.076Z,24.81
2022-08-05T10:59:07.230Z,24.36
2022-08-05T11:02:07.319Z,24.62
2022-08-05T11:04:44.307Z,24.85
2022-08-05T11:07:16.299Z,24.75
2022-08-05T11:09:47.564Z,24.70
2022-08-05T11:12:33.558Z,23.96
2022-08-05T11:15:19.237Z,23.37
2022-08-05T11:17:58.205Z,23.80
2022-08-05T11:20:37.359Z,23.66
2022-08-05T11:23:25.248Z,23.99
2022-08-05T11:26:09.015Z,24.04
2022-08-05T11:28:43.065Z,23.44
2022-08-05T11:31:57.115Z,23.54
2022-08-05T11:34:16.429Z,23.64
2022-08-05T11:36:52.803Z,23.57
2022-08-05T11:39:39.129Z,22.86
2022-08-05T11:42:18.225Z,23.01
2022-08-05T11:44:54.055Z,22.12
2022-08-05T11:47:48.611Z,21.47
2022-08-05T11:50:10.081Z,21.97
2022-08-05T11:52:44.133Z,22.50
2022-08-05T11:55:14.571Z,22.24
2022-08-05T11:58:09.175Z,22.16
2022-08-05T12:00:38.515Z,22.00
2022-08-05T12:03:24.069Z,22.29
2022-08-05T12:05:58.930Z,22.83
2022-08-05T12:08:27.485Z,22.66
2022-08-05T12:10:58.785Z,23.23
2022-08-05T12:13:48.678Z,22.84
2022-08-05T12:16:18.737Z,23.32
2022-08-05T12:18:49.524Z,24.40
2022-08-05T12:21:24.454Z,24.49
2022-08-05T12:23:55.216Z,24.62
2022-08-05T12:26:23.797Z,24.86
2022-08-05T12:28:52.859Z,25.25
2022-08-05T12:31:23.487Z,25.28
2022-08-05T12:34:09.426Z,25.42
2022-08-05T12:36:48.271Z,25.48
2022-08-05T12:39:17.600Z,24.39
2022-08-05T12:41:45.964Z,24.39
2022-08-05T12:44:28.531Z,24.63
2022-08-05T12:47:01.883Z,24.86
2022-08-05T12:50:02.037Z,26.14
2022-08-05T12:52:33.853Z,27.54
2022-08-05T12:55:17.042Z,26.54
2022-08-05T12:58:38.415Z,27.38
2022-08-05T13:02:01.083Z,27.69
2022-08-05T13:03:22.526Z,28.41
2022-08-05T13:05:50.451Z,28.78
2022-08-05T13:08:19.030Z,29.56
2022-08-05T13:10:50.677Z,29.74
2022-08-05T13:14:06.742Z,27.66
2022-08-05T13:16:15.277Z,27.94
2022-08-05T13:18:51.299Z,26.48
2022-08-05T13:21:18.737Z,27.08
2022-08-05T13:23:50.629Z,28.79
2022-08-05T13:26:24.077Z,29.64
2022-08-05T13:28:59.148Z,30.72
2022-08-05T13:31:33.731Z,30.37
2022-08-05T13:34:21.030Z,31.50
2022-08-05T13:36:52.998Z,31.78
2022-08-05T13:40:13.896Z,32.22
2022-08-05T13:42:14.531Z,30.48
2022-08-05T13:44:45.527Z,29.92
2022-08-05T13:47:35.429Z,28.16
2022-08-05T13:50:04.402Z,27.83
2022-08-05T13:52:35.201Z,29.35
2022-08-05T13:55:02.807Z,30.41
2022-08-05T13:57:48.742Z,29.74
2022-08-05T14:00:26.921Z,29.60
2022-08-05T14:02:56.285Z,28.49
2022-08-05T14:05:48.287Z,28.47
2022-08-05T14:08:21.065Z,27.39
2022-08-05T14:11:03.277Z,26.69
2022-08-05T14:13:42.755Z,25.56
2022-08-05T14:16:11.643Z,25.44
2022-08-05T14:18:45.480Z,25.55
2022-08-05T14:22:08.935Z,25.47
2022-08-05T14:24:00.666Z,26.38
2022-08-05T14:26:37.054Z,26.66
2022-08-05T14:29:15.878Z,26.72
2022-08-05T14:31:54.579Z,26.73
2022-08-05T14:34:34.950Z,26.70
2022-08-05T14:37:03.056Z,26.40
2022-08-05T14:39:30.485Z,26.32
2022-08-05T14:42:29.255Z,26.99
2022-08-05T14:44:57.009Z,27.07
2022-08-05T14:48:03.574Z,27.04
2022-08-05T14:50:18.407Z,27.40
2022-08-05T14:52:53.044Z,27.37
2022-08-05T14:55:21.285Z,27.39
2022-08-05T14:57:54.570Z,27.42
2022-08-05T15:00:28.019Z,26.26
2022-08-05T15:02:56.953Z,24.28
2022-08-05T15:05:30.127Z,24.86
2022-08-05T15:08:38.074Z,25.27
2022-08-05T15:11:02.334Z,26.81
2022-08-05T15:13:46.258Z,25.14
2022-08-05T15:16:17.638Z,25.44
2022-08-05T15:18:47.245Z,26.85
2022-08-05T15:21:16.218Z,27.16
2022-08-05T15:23:48.606Z,26.64
2022-08-05T15:26:17.489Z,25.86
2022-08-05T15:28:59.795Z,25.66
2022-08-05T15:31:34.903Z,26.87
2022-08-05T15:34:19.057Z,26.99
2022-08-05T15:36:51.462Z,24.32
2022-08-05T15:40:59.594Z,24.43
2022-08-05T15:44:54.968Z,25.81
2022-08-05T15:47:23.675Z,25.13
2022-08-05T15:52:29.578Z,24.26
2022-08-05T15:55:16.289Z,24.71
2022-08-05T15:57:45.058Z,22.65
2022-08-05T16:00:13.089Z,24.02
2022-08-05T16:02:44.438Z,24.68
2022-08-05T16:05:11.930Z,23.74
2022-08-05T16:07:46.205Z,24.37
2022-08-05T16:10:14.200Z,24.30
2022-08-05T16:12:42.394Z,23.82
2022-08-05T16:15:10.335Z,24.08
2022-08-05T16:17:57.440Z,24.39
2022-08-05T16:20:25.579Z,24.97
2022-08-05T16:22:57.495Z,25.12
2022-08-05T16:25:32.069Z,25.04
2022-08-05T16:28:06.028Z,23.60
2022-08-05T16:30:34.229Z,24.16
2022-08-05T16:33:03.760Z,23.62
2022-08-05T16:35:33.731Z,23.87
2022-08-05T16:38:18.834Z,24.02
2022-08-05T16:40:59.842Z,24.15
2022-08-05T16:43:29.030Z,24.03
2022-08-05T16:46:05.266Z,23.85
2022-08-05T16:48:35.969Z,23.69
2022-08-05T16:51:03.940Z,23.11
2022-08-05T16:54:03.155Z,22.80
2022-08-05T16:56:27.351Z,22.55
2022-08-05T16:58:54.833Z,22.47
2022-08-05T17:01:24.247Z,22.35
2022-08-05T17:03:52.165Z,22.18
2022-08-05T17:06:19.759Z,21.85
2022-08-05T17:08:53.582Z,21.91
2022-08-05T17:11:23.538Z,21.86
2022-08-05T17:14:00.427Z,21.76
2022-08-05T17:16:36.033Z,21.57
2022-08-05T17:19:07.542Z,21.54
2022-08-05T17:21:37.032Z,21.49
2022-08-05T17:24:28.266Z,21.51
2022-08-05T17:26:56.364Z,21.44
2022-08-05T17:29:33.484Z,20.92
2022-08-05T17:32:04.730Z,21.16
2022-08-05T17:34:34.777Z,21.10
2022-08-05T17:37:02.559Z,20.91
2022-08-05T17:39:34.565Z,20.45
2022-08-05T17:42:18.474Z,20.53
2022-08-05T17:44:50.047Z,20.63
2022-08-05T17:47:22.177Z,20.50
2022-08-05T17:50:03.561Z,20.49
2022-08-05T17:52:32.599Z,20.44
2022-08-05T17:55:03.152Z,20.39
2022-08-05T17:57:30.729Z,20.17
2022-08-05T18:00:04.805Z,20.12
2022-08-05T18:02:33.430Z,20.04
2022-08-05T18:05:06.292Z,19.99
2022-08-05T18:07:41.147Z,19.89
2022-08-05T18:10:11.619Z,19.85
2022-08-05T18:12:48.231Z,19.75
2022-08-05T18:15:15.667Z,19.68
2022-08-05T18:17:59.272Z,19.51
2022-08-05T18:20:31.623Z,19.47
2022-08-05T18:23:11.230Z,19.44
2022-08-05T18:25:45.207Z,19.37
2022-08-05T18:28:16.470Z,19.29
2022-08-05T18:30:44.511Z,19.27
2022-08-05T18:33:13.493Z,19.22
2022-08-05T18:36:00.817Z,19.17
2022-08-05T18:38:29.006Z,19.04
2022-08-05T18:41:55.543Z,18.97
2022-08-05T18:43:48.609Z,18.92
2022-08-05T18:46:19.901Z,18.90
2022-08-05T18:48:48.074Z,18.83
2022-08-05T18:52:04.972Z,18.63
2022-08-05T18:54:28.594Z,18.65
2022-08-05T18:57:00.863Z,18.59
2022-08-05T18:59:44.409Z,18.57
2022-08-05T19:02:27.928Z,18.48
2022-08-05T19:05:02.354Z,18.25
2022-08-05T19:07:46.646Z,18.31
2022-08-05T19:10:14.564Z,18.21
2022-08-05T19:12:43.500Z,18.17
2022-08-05T19:15:50.670Z,18.14
2022-08-05T19:18:10.326Z,18.10
2022-08-05T19:20:46.583Z,17.99
2022-08-05T19:24:03.796Z,17.92
2022-08-05T19:26:02.919Z,17.89
2022-08-05T19:28:32.895Z,17.84
2022-08-05T19:31:01.019Z,17.81
2022-08-05T19:33:34.038Z,17.78
2022-08-05T19:36:06.582Z,17.74
2022-08-05T19:38:35.871Z,17.67
2022-08-05T19:41:07.329Z,17.60
2022-08-05T19:44:06.549Z,17.51
2022-08-05T19:46:30.433Z,17.43
2022-08-05T19:49:03.166Z,17.40
2022-08-05T19:52:05.462Z,17.38
2022-08-05T19:54:26.813Z,17.31
2022-08-05T19:56:58.499Z,17.27
2022-08-05T19:59:55.307Z,17.22
2022-08-05T20:02:22.454Z,17.18
2022-08-05T20:04:51.629Z,17.13
2022-08-05T20:07:46.486Z,17.09
2022-08-05T20:10:13.217Z,17.05
2022-08-05T20:12:47.710Z,16.97
2022-08-05T20:15:47.786Z,16.88
2022-08-05T20:18:10.252Z,16.84
2022-08-05T20:20:55.253Z,16.77
2022-08-05T20:23:24.172Z,16.69
2022-08-05T20:26:08.765Z,16.67
2022-08-05T20:28:44.202Z,16.62
2022-08-05T20:31:13.762Z,16.60
2022-08-05T20:33:44.714Z,16.55
2022-08-05T20:36:12.428Z,16.45
2022-08-05T20:38:53.993Z,16.40
2022-08-05T20:41:43.129Z,16.35
2022-08-05T20:44:17.735Z,16.32
2022-08-05T20:46:48.779Z,16.26
2022-08-05T20:49:18.449Z,16.21
2022-08-05T20:51:53.602Z,16.16
2022-08-05T20:54:21.700Z,16.13
2022-08-05T20:56:49.186Z,16.09
2022-08-05T20:59:19.352Z,16.05
2022-08-05T21:01:57.905Z,16.02
2022-08-05T21:04:30.168Z,15.99
2022-08-05T21:06:57.620Z,15.99
2022-08-05T21:09:25.575Z,15.94
2022-08-05T21:12:10.241Z,15.92
2022-08-05T21:14:38.762Z,15.87
2022-08-05T21:17:07.706Z,15.85
2022-08-05T21:19:47.582Z,15.83
2022-08-05T21:22:21.900Z,15.81
2022-08-05T21:24:51.558Z,15.78
2022-08-05T21:27:20.541Z,15.76
2022-08-05T21:29:52.424Z,15.71
2022-08-05T21:32:23.406Z,15.67
2022-08-05T21:35:09.031Z,15.64
2022-08-05T21:37:41.001Z,15.63
2022-08-05T21:40:13.653Z,15.63
2022-08-05T21:42:45.291Z,15.58
2022-08-05T21:45:24.076Z,15.58
2022-08-05T21:47:58.008Z,15.54
2022-08-05T21:50:25.821Z,15.54
2022-08-05T21:52:53.363Z,15.51
2022-08-05T21:56:01.253Z,15.46
2022-08-05T21:58:10.537Z,15.40
2022-08-05T22:00:40.108Z,15.37
2022-08-05T22:03:10.183Z,15.34
2022-08-05T22:05:48.781Z,15.32
2022-08-05T22:08:22.578Z,15.29
2022-08-05T22:10:53.246Z,15.27
2022-08-05T22:14:34.175Z,15.27
2022-08-05T22:16:32.186Z,15.23
2022-08-05T22:18:58.775Z,15.19
2022-08-05T22:21:26.433Z,15.16
2022-08-05T22:24:13.227Z,15.15
2022-08-05T22:27:17.439Z,15.12
2022-08-05T22:29:45.907Z,15.09
2022-08-05T22:32:17.473Z,15.06
2022-08-05T22:34:46.542Z,15.04
2022-08-05T22:37:14.012Z,15.00
2022-08-05T22:39:41.539Z,15.01
2022-08-05T22:42:15.331Z,14.97
2022-08-05T22:44:56.653Z,14.95
2022-08-05T22:47:29.148Z,14.93
2022-08-05T22:50:21.041Z,14.90
2022-08-05T22:52:46.939Z,14.84
2022-08-05T22:55:19.242Z,14.81
2022-08-05T22:57:48.848Z,14.79
2022-08-05T23:00:18.325Z,14.77
2022-08-05T23:02:48.785Z,14.73
2022-08-05T23:05:18.206Z,14.70
2022-08-05T23:07:48.847Z,14.69
2022-08-05T23:10:20.217Z,14.66
2022-08-05T23:12:51.574Z,14.63
2022-08-05T23:15:22.389Z,14.62
2022-08-05T23:18:01.458Z,14.58
2022-08-05T23:20:31.452Z,14.57
2022-08-05T23:23:00.106Z,14.55
2022-08-05T23:25:51.131Z,14.55
2022-08-05T23:28:15.842Z,14.53
2022-08-05T23:30:53.545Z,14.51
2022-08-05T23:33:26.214Z,14.46
2022-08-05T23:36:13.484Z,14.46
2022-08-05T23:38:41.471Z,14.46
2022-08-05T23:41:10.414Z,14.45
2022-08-05T23:44:04.840Z,14.44
2022-08-05T23:46:25.773Z,14.41
2022-08-05T23:48:59.876Z,14.38
2022-08-05T23:51:52.378Z,14.36
2022-08-05T23:54:25.746Z,14.32
2022-08-05T23:56:54.452Z,14.33
2022-08-05T23:59:22.473Z,14.32
